Time;durP1;ratioP1;P1;durP2;ratioP2;P2;SDS_P1;SDS_P2;PMS_P1;PMS_P2;Temp;Humidity;BMP_temperature;BMP_pressure;BME280_temperature;BME280_humidity;BME280_pressure;Samples;Min_cycle;Max_cycle;Signal;HPM_P1;HPM_P2
2023/07/22 00:02:16;;;;;;;7.88;6.10;;;;;;;13.16;91.35;101410.81;6188566;23;20487;-76
2023/07/22 00:04:43;;;;;;;7.47;6.07;;;;;;;13.14;91.05;101409.75;6188800;23;20519;-76
2023/07/22 00:07:10;;;;;;;7.38;5.82;;;;;;;13.13;91.21;101411.66;6188657;23;20024;-78
2023/07/22 00:09:38;;;;;;;9.55;6.10;;;;;;;13.09;91.30;101412.97;6188463;23;20128;-76
2023/07/22 00:12:05;;;;;;;6.63;5.95;;;;;;;13.06;90.97;101419.22;6187923;23;20020;-76
2023/07/22 00:14:32;;;;;;;7.05;5.30;;;;;;;13.06;90.78;101416.53;6188599;23;20436;-76
2023/07/22 00:16:58;;;;;;;7.03;5.10;;;;;;;13.03;90.47;101423.50;6188633;23;20045;-76
2023/07/22 00:19:25;;;;;;;6.40;5.72;;;;;;;12.98;91.07;101408.78;6188553;23;20026;-76
2023/07/22 00:21:52;;;;;;;6.47;5.40;;;;;;;12.98;90.79;101406.09;6162087;23;20068;-77
2023/07/22 00:24:18;;;;;;;6.43;5.15;;;;;;;13.00;91.09;101411.00;6188297;23;20436;-76
2023/07/22 00:26:45;;;;;;;6.43;5.00;;;;;;;12.98;91.08;101408.03;6188034;23;20490;-76
2023/07/22 00:29:12;;;;;;;6.13;5.60;;;;;;;12.95;90.97;101406.97;6156620;23;20109;-76
2023/07/22 00:31:38;;;;;;;8.65;5.72;;;;;;;12.94;91.62;101405.50;6156752;23;20018;-76
2023/07/22 00:34:05;;;;;;;7.47;5.90;;;;;;;12.90;91.56;101402.22;6156966;23;20020;-77
2023/07/22 00:36:31;;;;;;;6.15;5.30;;;;;;;12.89;91.72;101410.66;6158444;23;20025;-77
2023/07/22 00:38:58;;;;;;;7.05;5.85;;;;;;;12.85;91.18;101408.13;6156707;23;20108;-76
2023/07/22 00:41:25;;;;;;;5.70;5.18;;;;;;;12.82;91.05;101406.31;6158022;23;20085;-76
2023/07/22 00:43:52;;;;;;;5.82;5.20;;;;;;;12.78;91.04;101413.75;6158541;23;20085;-77
2023/07/22 00:46:19;;;;;;;5.25;4.80;;;;;;;12.76;90.62;101405.44;6158424;23;20404;-76
2023/07/22 00:48:47;;;;;;;5.25;4.72;;;;;;;12.73;90.53;101400.22;6156961;23;20026;-76
2023/07/22 00:51:14;;;;;;;6.80;5.25;;;;;;;12.70;90.69;101407.16;6158490;23;20073;-77
2023/07/22 00:53:41;;;;;;;4.93;4.38;;;;;;;12.65;90.48;101400.47;6156289;23;20467;-77
2023/07/22 00:56:08;;;;;;;5.28;4.78;;;;;;;12.64;90.45;101390.22;6155701;23;20025;-77
2023/07/22 00:58:35;;;;;;;4.45;4.07;;;;;;;12.64;90.86;101398.22;6156731;23;20085;-77
2023/07/22 01:01:02;;;;;;;5.38;4.88;;;;;;;12.63;90.67;101389.47;6158334;23;20024;-77
2023/07/22 01:03:28;;;;;;;6.32;5.10;;;;;;;12.61;90.97;101383.81;6156268;23;20022;-77
2023/07/22 01:05:56;;;;;;;5.07;4.63;;;;;;;12.61;91.22;101389.16;6157993;23;20014;-76
2023/07/22 01:08:23;;;;;;;5.25;4.63;;;;;;;12.59;91.12;101378.16;6157994;23;20463;-76
2023/07/22 01:10:49;;;;;;;5.00;4.60;;;;;;;12.58;91.38;101381.28;6157656;23;20014;-77
2023/07/22 01:13:16;;;;;;;7.07;4.82;;;;;;;12.57;91.09;101374.44;6158768;23;20018;-77
2023/07/22 01:15:43;;;;;;;6.72;4.80;;;;;;;12.51;90.93;101376.19;6157307;23;20018;-76
2023/07/22 01:18:10;;;;;;;5.78;4.68;;;;;;;12.47;91.48;101373.66;6159518;23;20026;-77
2023/07/22 01:20:37;;;;;;;7.80;5.05;;;;;;;12.43;91.66;101373.03;6159366;23;20018;-76
2023/07/22 01:23:04;;;;;;;4.63;4.22;;;;;;;12.43;90.97;101374.94;6159538;23;20018;-76
2023/07/22 01:25:31;;;;;;;4.93;4.53;;;;;;;12.41;91.43;101367.38;6132643;23;20093;-77
2023/07/22 01:27:57;;;;;;;4.72;4.32;;;;;;;12.43;90.79;101369.63;6157549;23;20081;-76
2023/07/22 01:30:26;;;;;;;8.13;4.63;;;;;;;12.43;91.19;101374.94;6159700;23;20089;-76
2023/07/22 01:32:53;;;;;;;4.95;4.45;;;;;;;12.41;91.55;101362.03;6159605;23;20014;-76
2023/07/22 01:35:21;;;;;;;4.70;4.30;;;;;;;12.40;91.26;101363.22;6157968;23;20153;-77
2023/07/22 01:37:47;;;;;;;5.35;4.57;;;;;;;12.39;91.37;101363.69;6159661;23;20025;-76
2023/07/22 01:40:14;;;;;;;4.90;4.40;;;;;;;12.34;91.69;101360.38;6158680;23;20028;-76
2023/07/22 01:42:42;;;;;;;5.00;4.50;;;;;;;12.32;91.26;101365.41;6157797;23;20022;-78
2023/07/22 01:45:09;;;;;;;7.15;4.47;;;;;;;12.31;91.16;101369.28;6157572;23;20077;-78
2023/07/22 01:47:36;;;;;;;5.18;4.78;;;;;;;12.28;90.95;101364.81;6159588;23;20356;-78
2023/07/22 01:50:06;;;;;;;5.55;4.97;;;;;;;12.25;91.13;101373.69;6159538;23;20049;-78
2023/07/22 01:52:33;;;;;;;5.63;5.10;;;;;;;12.19;91.25;101364.75;6158791;23;20021;-78
2023/07/22 01:54:59;;;;;;;4.80;4.45;;;;;;;12.17;90.72;101363.69;6157844;23;20069;-78
2023/07/22 01:57:26;;;;;;;5.05;4.65;;;;;;;12.16;90.72;101364.84;6157395;23;20442;-78
2023/07/22 01:59:52;;;;;;;5.57;4.88;;;;;;;12.14;91.60;101354.63;6157556;23;20026;-78
2023/07/22 02:02:20;;;;;;;5.78;5.18;;;;;;;12.14;91.58;101367.22;6157393;23;20468;-78
2023/07/22 02:04:46;;;;;;;8.43;6.00;;;;;;;12.13;92.24;101374.47;6157779;23;20147;-78
2023/07/22 02:07:13;;;;;;;5.78;5.25;;;;;;;12.13;91.62;101365.72;6132328;23;20026;-78
2023/07/22 02:09:40;;;;;;;8.25;5.80;;;;;;;12.09;92.40;101362.44;6157369;23;20105;-78
2023/07/22 02:12:08;;;;;;;6.82;5.53;;;;;;;12.08;91.88;101359.00;6159421;23;20018;-78
2023/07/22 02:14:34;;;;;;;6.72;5.68;;;;;;;12.07;92.55;101359.44;6159048;23;20097;-77
2023/07/22 02:17:01;;;;;;;7.18;5.93;;;;;;;12.04;92.59;101355.72;6159225;23;20021;-77
2023/07/22 02:19:28;;;;;;;8.43;6.22;;;;;;;12.01;92.43;101352.00;6157377;23;20089;-78
2023/07/22 02:21:55;;;;;;;7.65;5.53;;;;;;;12.00;92.24;101345.16;6132314;23;20468;-78
2023/07/22 02:24:21;;;;;;;6.75;5.90;;;;;;;11.98;92.66;101349.47;6159090;23;20018;-78
2023/07/22 02:26:48;;;;;;;6.97;5.85;;;;;;;11.95;92.56;101340.41;6159688;23;20018;-78
2023/07/22 02:29:15;;;;;;;7.47;5.95;;;;;;;11.94;92.86;101336.25;6132887;23;20360;-78
2023/07/22 02:31:41;;;;;;;9.10;5.60;;;;;;;11.90;93.15;101340.22;6157461;23;20022;-78
2023/07/22 02:34:08;;;;;;;7.57;6.00;;;;;;;11.91;93.48;101341.72;6159172;23;20394;-75
2023/07/22 02:36:34;;;;;;;8.93;5.47;;;;;;;11.90;93.23;101343.63;6158842;23;20054;-76
2023/07/22 02:39:01;;;;;;;7.82;5.65;;;;;;;11.87;92.78;101344.50;6159109;23;20360;-75
2023/07/22 02:41:28;;;;;;;7.07;5.43;;;;;;;11.87;93.06;101343.75;6133053;23;20520;-78
2023/07/22 02:43:54;;;;;;;8.10;6.00;;;;;;;11.84;93.15;101331.28;6159058;23;20046;-75
2023/07/22 02:46:21;;;;;;;6.63;5.57;;;;;;;11.82;93.18;101331.72;6157408;23;20053;-78
2023/07/22 02:48:48;;;;;;;7.40;5.50;;;;;;;11.83;92.67;101335.13;6133297;23;20018;-78
2023/07/22 02:51:15;;;;;;;8.73;5.80;;;;;;;11.81;93.25;101332.88;6158984;23;20475;-77
2023/07/22 02:53:42;;;;;;;8.07;6.18;;;;;;;11.81;93.17;101332.16;6157324;23;20426;-77
2023/07/22 02:56:09;;;;;;;7.45;6.57;;;;;;;11.80;93.37;101323.41;6132761;23;20030;-77
2023/07/22 02:58:37;;;;;;;7.25;6.20;;;;;;;11.79;93.76;101329.16;6158830;23;20436;-77
2023/07/22 03:01:05;;;;;;;8.75;6.60;;;;;;;11.76;94.26;101330.75;6157310;23;20066;-77
2023/07/22 03:03:34;;;;;;;8.68;6.38;;;;;;;11.75;93.90;101331.19;6132842;23;20025;-77
2023/07/22 03:06:03;;;;;;;9.65;6.65;;;;;;;11.71;94.30;101333.97;6156584;23;20080;-77
2023/07/22 03:08:30;;;;;;;7.70;6.60;;;;;;;11.70;93.96;101335.88;6159463;23;20041;-76
2023/07/22 03:10:56;;;;;;;7.53;6.53;;;;;;;11.68;93.37;101340.91;6159384;23;20449;-76
2023/07/22 03:13:23;;;;;;;12.45;6.60;;;;;;;11.65;93.76;101339.09;6132900;23;20470;-76
2023/07/22 03:15:50;;;;;;;9.60;7.28;;;;;;;11.65;94.33;101347.09;6157570;23;20033;-76
2023/07/22 03:18:16;;;;;;;8.95;7.15;;;;;;;11.65;94.53;101341.03;6159170;23;20363;-76
2023/07/22 03:20:43;;;;;;;11.00;7.50;;;;;;;11.66;95.19;101339.84;6156868;23;20480;-76
2023/07/22 03:23:10;;;;;;;10.98;7.82;;;;;;;11.65;96.04;101343.69;6157173;23;20101;-76
2023/07/22 03:25:36;;;;;;;10.82;7.80;;;;;;;11.65;95.79;101333.75;6159007;23;20460;-76
2023/07/22 03:28:05;;;;;;;11.90;8.05;;;;;;;11.67;96.57;101344.75;6167366;23;20068;-76
2023/07/22 03:30:31;;;;;;;12.35;9.55;;;;;;;11.66;96.90;101345.19;6188853;23;20014;-76
2023/07/22 03:32:58;;;;;;;11.65;8.48;;;;;;;11.66;96.75;101348.59;6188800;23;20049;-76
2023/07/22 03:35:25;;;;;;;13.18;8.20;;;;;;;11.67;97.41;101341.34;6188144;23;20025;-76
2023/07/22 03:37:52;;;;;;;12.32;8.68;;;;;;;11.67;97.99;101344.00;6188222;23;20014;-76
2023/07/22 03:40:26;;;;;;;13.80;9.20;;;;;;;11.68;97.70;101346.25;6188665;23;20017;-76
2023/07/22 03:42:54;;;;;;;15.52;9.98;;;;;;;11.69;98.07;101346.97;6188602;23;20069;-76
2023/07/22 03:45:22;;;;;;;13.05;9.55;;;;;;;11.69;97.64;101341.66;6162411;23;20080;-76
2023/07/22 03:47:59;;;;;;;13.52;9.85;;;;;;;11.69;97.28;101342.41;6188916;23;20026;-76
2023/07/22 03:50:27;;;;;;;12.93;9.73;;;;;;;11.68;97.81;101338.22;6136788;23;20021;-76
2023/07/22 03:52:54;;;;;;;14.45;10.00;;;;;;;11.68;97.87;101340.16;6161820;23;20021;-76
2023/07/22 03:55:21;;;;;;;14.82;10.00;;;;;;;11.67;97.62;101338.66;6188371;23;20375;-76
2023/07/22 03:57:47;;;;;;;14.25;10.13;;;;;;;11.67;97.73;101344.75;6162089;23;20017;-76
2023/07/22 04:00:14;;;;;;;16.75;9.25;;;;;;;11.69;97.87;101346.97;6161403;23;20443;-76
2023/07/22 04:02:41;;;;;;;15.85;9.82;;;;;;;11.69;98.23;101347.72;6188215;23;20024;-76
2023/07/22 04:05:09;;;;;;;15.27;9.60;;;;;;;11.69;98.52;101344.31;6161372;23;20026;-76
2023/07/22 04:07:36;;;;;;;17.13;10.75;;;;;;;11.67;99.06;101347.41;6161635;23;20021;-76
2023/07/22 04:10:03;;;;;;;19.38;11.10;;;;;;;11.69;99.35;101350.41;6161685;23;20036;-76
2023/07/22 04:12:31;;;;;;;16.95;10.50;;;;;;;11.70;98.68;101345.81;6161675;23;20021;-76
2023/07/22 04:14:58;;;;;;;15.68;10.10;;;;;;;11.69;99.18;101354.97;6188456;23;20466;-76
2023/07/22 04:17:27;;;;;;;17.23;10.10;;;;;;;11.67;99.18;101355.41;6161008;23;20096;-76
2023/07/22 04:19:54;;;;;;;15.93;9.35;;;;;;;11.69;99.00;101339.72;6188045;23;20045;-76
2023/07/22 04:22:22;;;;;;;17.35;9.65;;;;;;;11.72;99.00;101342.72;6188456;23;20093;-76
2023/07/22 04:24:48;;;;;;;15.52;9.48;;;;;;;11.75;99.02;101349.84;6188804;23;20018;-76
2023/07/22 04:27:16;;;;;;;15.10;9.82;;;;;;;11.78;98.73;101343.69;6188710;23;20013;-76
2023/07/22 04:29:43;;;;;;;12.82;9.30;;;;;;;11.81;99.52;101348.16;6156510;23;20456;-77
2023/07/22 04:32:09;;;;;;;15.60;9.88;;;;;;;11.84;99.78;101342.69;6155635;23;20018;-76
2023/07/22 04:34:36;;;;;;;15.98;9.55;;;;;;;11.89;99.63;101341.41;6156841;23;20081;-76
2023/07/22 04:37:03;;;;;;;18.75;9.95;;;;;;;11.92;99.55;101346.63;6156954;23;20422;-76
2023/07/22 04:39:29;;;;;;;14.57;9.60;;;;;;;11.95;99.79;101353.75;6156518;23;20018;-77
2023/07/22 04:41:56;;;;;;;17.23;9.40;;;;;;;11.99;99.97;101348.31;6158413;23;20014;-76
2023/07/22 04:44:23;;;;;;;15.23;9.80;;;;;;;12.02;100.00;101344.75;6156798;23;20053;-77
2023/07/22 04:46:50;;;;;;;13.98;9.93;;;;;;;12.07;100.00;101346.84;6157997;23;20018;-76
2023/07/22 04:49:17;;;;;;;14.70;9.65;;;;;;;12.12;100.00;101340.22;6159909;23;20393;-77
2023/07/22 04:51:45;;;;;;;13.95;10.15;;;;;;;12.18;100.00;101349.91;6158499;23;20040;-77
2023/07/22 04:54:13;;;;;;;19.48;9.77;;;;;;;12.26;100.00;101355.72;6159572;23;20088;-76
2023/07/22 04:56:39;;;;;;;20.45;10.10;;;;;;;12.30;100.00;101354.44;6157630;23;20563;-76
2023/07/22 04:59:06;;;;;;;18.67;11.00;;;;;;;12.37;100.00;101347.34;6159561;23;20045;-76
2023/07/22 05:01:33;;;;;;;15.98;10.93;;;;;;;12.42;100.00;101350.19;6158717;23;20022;-77
2023/07/22 05:03:59;;;;;;;18.50;12.07;;;;;;;12.49;100.00;101351.84;6159616;23;20079;-77
2023/07/22 05:06:28;;;;;;;20.08;11.18;;;;;;;12.53;100.00;101344.44;6157903;23;20448;-78
2023/07/22 05:08:55;;;;;;;22.17;11.73;;;;;;;12.59;100.00;101340.03;6157458;23;20440;-78
2023/07/22 05:11:23;;;;;;;18.50;11.60;;;;;;;12.64;100.00;101342.88;6158035;23;20017;-77
2023/07/22 05:13:50;;;;;;;15.70;11.05;;;;;;;12.68;100.00;101337.41;6159930;23;20022;-77
2023/07/22 05:16:17;;;;;;;21.23;11.48;;;;;;;12.73;100.00;101344.13;6159647;23;20013;-77
2023/07/22 05:18:44;;;;;;;20.17;12.30;;;;;;;12.80;100.00;101344.56;6158386;23;20041;-78
2023/07/22 05:21:10;;;;;;;17.30;12.30;;;;;;;12.90;100.00;101348.75;6157914;23;20114;-78
2023/07/22 05:23:37;;;;;;;20.83;12.15;;;;;;;12.98;100.00;101352.66;6157902;23;20026;-78
2023/07/22 05:26:03;;;;;;;20.30;12.40;;;;;;;13.03;100.00;101346.75;6157857;23;20085;-77
2023/07/22 05:28:30;;;;;;;22.60;13.07;;;;;;;13.10;100.00;101344.97;6157824;23;20480;-78
2023/07/22 05:30:57;;;;;;;22.63;13.10;;;;;;;13.17;100.00;101342.78;6157653;23;20309;-78
2023/07/22 05:33:24;;;;;;;21.20;12.98;;;;;;;13.27;100.00;101343.53;6159588;23;20022;-78
2023/07/22 05:35:50;;;;;;;20.13;12.43;;;;;;;13.37;100.00;101347.72;6160156;23;20049;-78
2023/07/22 05:38:17;;;;;;;23.52;13.02;;;;;;;13.44;100.00;101349.38;6160266;23;20081;-78
2023/07/22 05:40:44;;;;;;;27.48;13.32;;;;;;;13.51;100.00;101352.50;6159917;23;20018;-78
2023/07/22 05:43:11;;;;;;;24.27;13.02;;;;;;;13.55;100.00;101347.75;6157588;23;20931;-78
2023/07/22 05:45:37;;;;;;;27.85;13.88;;;;;;;13.61;100.00;101347.88;6158614;23;20037;-76
2023/07/22 05:48:04;;;;;;;23.30;13.23;;;;;;;13.67;100.00;101352.19;6133223;23;20478;-78
2023/07/22 05:50:31;;;;;;;27.95;14.65;;;;;;;13.72;100.00;101350.88;6133079;23;20102;-77
2023/07/22 05:52:58;;;;;;;29.30;14.02;;;;;;;13.78;100.00;101359.78;6159262;23;20029;-76
2023/07/22 05:55:24;;;;;;;27.73;14.02;;;;;;;13.84;100.00;101352.66;6159508;23;20018;-77
2023/07/22 05:57:51;;;;;;;23.92;14.00;;;;;;;13.91;100.00;101355.03;6159265;23;20021;-77
2023/07/22 06:00:18;;;;;;;26.30;14.15;;;;;;;14.00;100.00;101355.00;6158724;23;20018;-77
2023/07/22 06:02:45;;;;;;;24.20;14.02;;;;;;;14.11;100.00;101351.13;6159722;23;20022;-78
2023/07/22 06:05:11;;;;;;;26.45;15.10;;;;;;;14.20;100.00;101353.81;6159141;23;20018;-77
2023/07/22 06:07:38;;;;;;;27.05;13.63;;;;;;;14.27;100.00;101361.53;6159359;23;20341;-77
2023/07/22 06:10:06;;;;;;;29.10;14.63;;;;;;;14.34;100.00;101361.97;6157670;23;20021;-77
2023/07/22 06:12:32;;;;;;;29.83;14.77;;;;;;;14.42;100.00;101359.72;6157641;23;20018;-77
2023/07/22 06:14:59;;;;;;;26.20;14.68;;;;;;;14.48;100.00;101355.25;6157361;23;20073;-77
2023/07/22 06:17:26;;;;;;;23.13;13.70;;;;;;;14.56;100.00;101359.09;6159514;23;20021;-77
2023/07/22 06:19:53;;;;;;;24.48;13.77;;;;;;;14.65;100.00;101353.72;6157501;23;20022;-77
2023/07/22 06:22:19;;;;;;;27.15;14.57;;;;;;;14.73;100.00;101351.44;6132844;23;20345;-77
2023/07/22 06:24:46;;;;;;;25.02;13.82;;;;;;;14.81;100.00;101347.22;6160170;23;20053;-75
2023/07/22 06:27:13;;;;;;;18.98;13.70;;;;;;;14.91;99.92;101342.56;6160239;23;20014;-76
2023/07/22 06:29:39;;;;;;;24.85;14.68;;;;;;;15.05;99.20;101346.53;6187741;23;20475;-75
2023/07/22 06:32:06;;;;;;;26.20;14.10;;;;;;;15.46;98.88;101348.34;6189438;23;20865;-75
2023/07/22 06:34:33;;;;;;;28.20;14.73;;;;;;;15.87;96.72;101348.66;6188172;23;20017;-75
2023/07/22 06:36:59;;;;;;;25.73;13.88;;;;;;;16.21;94.99;101334.59;6162043;23;20045;-74
2023/07/22 06:39:26;;;;;;;25.40;14.88;;;;;;;16.49;92.77;101339.66;6161745;23;20507;-76
2023/07/22 06:41:53;;;;;;;22.58;14.82;;;;;;;16.62;91.15;101343.53;6189002;23;20404;-76
2023/07/22 06:44:19;;;;;;;21.05;14.20;;;;;;;16.76;90.81;101336.69;6189104;23;20014;-77
2023/07/22 06:46:46;;;;;;;23.65;14.20;;;;;;;16.73;89.56;101340.31;6190309;23;20190;-76
2023/07/22 06:49:12;;;;;;;26.13;14.98;;;;;;;16.68;89.21;101340.97;6189894;23;20036;-77
2023/07/22 06:51:39;;;;;;;22.90;14.50;;;;;;;16.81;90.10;101336.00;6163247;23;20018;-74
2023/07/22 06:54:06;;;;;;;22.77;14.68;;;;;;;16.86;88.62;101331.91;6189677;23;20014;-74
2023/07/22 06:56:32;;;;;;;25.98;15.20;;;;;;;17.05;89.25;101329.72;6189293;23;20021;-74
2023/07/22 06:58:59;;;;;;;23.23;14.15;;;;;;;17.14;87.96;101324.94;6162183;23;20411;-75
2023/07/22 07:01:25;;;;;;;30.75;14.23;;;;;;;17.20;87.47;101327.69;6189249;23;20882;-75
2023/07/22 07:03:52;;;;;;;25.80;14.43;;;;;;;17.27;86.89;101325.34;6189616;23;20463;-75
2023/07/22 07:06:19;;;;;;;27.83;14.27;;;;;;;17.41;86.49;101331.88;6162243;23;20460;-75
2023/07/22 07:08:46;;;;;;;21.50;14.45;;;;;;;17.49;85.33;101332.94;6189584;23;20020;-76
2023/07/22 07:11:12;;;;;;;26.60;14.75;;;;;;;17.50;84.94;101333.69;6188942;23;20017;-75
2023/07/22 07:13:39;;;;;;;19.63;13.20;;;;;;;17.48;85.53;101333.41;6188771;23;20059;-75
2023/07/22 07:16:26;;;;;;;21.52;15.00;;;;;;;17.49;84.81;101335.63;6163348;23;20020;-75
2023/07/22 07:18:55;;;;;;;21.13;13.80;;;;;;;17.61;85.07;101328.41;6163655;23;20418;-75
2023/07/22 07:21:22;;;;;;;20.17;14.43;;;;;;;17.81;85.50;101333.78;6189366;23;20033;-75
2023/07/22 07:23:49;;;;;;;22.23;14.77;;;;;;;18.10;84.04;101327.41;6162872;23;20040;-74
2023/07/22 07:26:16;;;;;;;20.60;13.05;;;;;;;18.21;82.81;101341.00;6189203;23;20020;-75
2023/07/22 07:28:42;;;;;;;21.20;12.90;;;;;;;18.25;82.47;101333.44;6189147;23;20033;-75
2023/07/22 07:31:09;;;;;;;21.55;13.15;;;;;;;18.23;82.08;101330.47;6189596;23;20448;-74
2023/07/22 07:33:36;;;;;;;19.30;13.05;;;;;;;18.11;81.88;101341.63;6189433;23;20024;-74
2023/07/22 07:36:03;;;;;;;19.23;13.00;;;;;;;18.02;82.25;101334.44;6189804;23;20424;-74
2023/07/22 07:38:31;;;;;;;17.35;13.18;;;;;;;17.96;82.32;101334.44;6189252;23;20045;-74
2023/07/22 07:41:03;;;;;;;20.50;12.50;;;;;;;17.99;81.52;101338.13;6188808;23;20408;-75
2023/07/22 07:43:30;;;;;;;17.58;12.35;;;;;;;18.06;81.68;101339.63;6189197;23;20147;-74
2023/07/22 07:46:21;;;;;;;16.88;12.18;;;;;;;18.19;80.63;101334.59;6189461;23;20018;-74
2023/07/22 07:48:52;;;;;;;18.08;12.30;;;;;;;18.20;79.65;101334.13;6189418;23;20014;-73
2023/07/22 07:51:20;;;;;;;16.52;11.50;;;;;;;18.20;79.53;101334.13;6189168;23;20052;-76
2023/07/22 07:53:48;;;;;;;18.13;11.32;;;;;;;18.33;79.47;101331.06;6189451;23;20018;-73
2023/07/22 07:56:17;;;;;;;19.70;12.10;;;;;;;18.39;77.95;101336.47;6188680;23;20017;-74
2023/07/22 07:58:45;;;;;;;20.17;11.80;;;;;;;18.35;77.87;101330.56;6189339;23;20020;-75
2023/07/22 08:01:12;;;;;;;17.70;11.38;;;;;;;18.39;77.29;101328.41;6189259;23;20055;-76
2023/07/22 08:03:44;;;;;;;16.73;10.77;;;;;;;18.42;77.49;101333.53;6188990;23;20020;-75
2023/07/22 08:06:12;;;;;;;15.50;11.52;;;;;;;18.46;76.19;101325.25;6162416;23;20017;-75
2023/07/22 08:08:39;;;;;;;25.75;11.65;;;;;;;18.48;76.36;101330.88;6188856;23;20475;-75
2023/07/22 08:11:13;;;;;;;20.05;10.88;;;;;;;18.51;75.95;101335.31;6188860;23;20080;-75
2023/07/22 08:13:40;;;;;;;18.40;10.68;;;;;;;18.64;76.19;101328.34;6189058;23;20018;-75
2023/07/22 08:16:08;;;;;;;14.45;10.32;;;;;;;18.74;74.94;101328.91;6189435;23;20020;-75
2023/07/22 08:18:36;;;;;;;20.23;10.07;;;;;;;18.89;75.59;101332.16;6188896;23;20415;-75
2023/07/22 08:21:04;;;;;;;13.65;10.18;;;;;;;19.10;74.41;101329.31;6189169;23;20026;-74
2023/07/22 08:23:31;;;;;;;20.08;11.43;;;;;;;19.14;73.72;101329.81;6188631;23;20018;-74
2023/07/22 08:25:57;;;;;;;13.75;10.35;;;;;;;19.18;72.56;101338.44;6188762;23;20014;-74
2023/07/22 08:28:24;;;;;;;15.98;10.45;;;;;;;19.33;71.84;101336.25;6188219;23;20014;-75
2023/07/22 08:30:54;;;;;;;17.50;9.68;;;;;;;19.52;71.63;101328.50;6189043;23;20511;-74
2023/07/22 08:33:24;;;;;;;16.52;10.70;;;;;;;19.79;71.63;101333.22;6162376;23;20049;-74
2023/07/22 08:36:07;;;;;;;15.20;9.40;;;;;;;20.21;68.57;101334.97;6189126;23;20013;-74
2023/07/22 08:38:34;;;;;;;14.13;9.75;;;;;;;20.25;67.45;101326.59;6188262;23;20014;-74
2023/07/22 08:41:00;;;;;;;15.10;9.05;;;;;;;20.20;68.58;101325.38;6189197;23;20052;-74
2023/07/22 08:43:29;;;;;;;12.60;9.02;;;;;;;20.27;67.44;101330.28;6188758;23;20479;-74
2023/07/22 08:46:00;;;;;;;19.15;9.90;;;;;;;20.31;67.24;101324.63;6188999;23;20020;-74
2023/07/22 08:48:32;;;;;;;16.92;9.38;;;;;;;20.48;66.51;101327.34;6188562;23;20013;-74
2023/07/22 08:51:05;;;;;;;15.52;9.63;;;;;;;20.74;65.88;101322.38;6188980;23;20077;-73
2023/07/22 08:53:33;;;;;;;14.98;9.82;;;;;;;20.73;64.87;101317.47;6188298;23;20093;-74
2023/07/22 08:56:02;;;;;;;17.10;9.18;;;;;;;20.72;64.87;101316.00;6188713;23;20013;-74
2023/07/22 08:58:29;;;;;;;14.65;9.88;;;;;;;20.69;65.86;101320.41;6188456;23;20018;-74
2023/07/22 09:00:56;;;;;;;13.35;8.50;;;;;;;20.54;65.46;101325.34;6188748;23;20032;-74
2023/07/22 09:03:24;;;;;;;11.07;7.88;;;;;;;20.50;65.64;101316.75;6188338;23;20014;-73
2023/07/22 09:05:51;;;;;;;13.23;8.30;;;;;;;20.66;65.99;101312.56;6188855;23;20348;-76
2023/07/22 09:08:18;;;;;;;11.48;8.07;;;;;;;20.68;64.93;101312.78;6188159;23;20018;-74
2023/07/22 09:10:46;;;;;;;15.60;8.05;;;;;;;20.81;65.05;101319.13;6162493;23;20038;-74
2023/07/22 09:13:18;;;;;;;12.50;7.57;;;;;;;20.98;66.35;101308.25;6188858;23;20020;-74
2023/07/22 09:15:47;;;;;;;13.32;7.78;;;;;;;21.12;65.48;101312.63;6161705;23;20925;-75
2023/07/22 09:18:15;;;;;;;8.50;6.32;;;;;;;21.19;62.09;101314.81;6161658;23;20041;-74
2023/07/22 09:20:42;;;;;;;8.27;6.30;;;;;;;21.10;62.29;101317.09;6188072;23;20481;-75
2023/07/22 09:23:09;;;;;;;10.35;6.05;;;;;;;20.93;62.34;101319.84;6188394;23;20017;-75
2023/07/22 09:25:41;;;;;;;12.77;6.13;;;;;;;20.85;62.48;101324.28;6187900;23;20014;-77
2023/07/22 09:28:09;;;;;;;12.55;5.60;;;;;;;20.71;61.05;101317.22;6155960;23;20026;-75
2023/07/22 09:30:41;;;;;;;9.52;5.40;;;;;;;20.53;62.53;101321.91;6158372;23;20109;-76
2023/07/22 09:33:20;;;;;;;7.28;5.18;;;;;;;20.82;62.81;101317.16;6158799;23;20014;-75
2023/07/22 09:35:49;;;;;;;7.45;5.55;;;;;;;20.97;61.85;101318.34;6160061;23;20474;-75
2023/07/22 09:38:25;;;;;;;9.85;5.88;;;;;;;20.95;61.71;101312.69;6159505;23;20018;-79
2023/07/22 09:40:53;;;;;;;7.53;5.32;;;;;;;20.89;61.01;101311.97;6158294;23;20028;-79
2023/07/22 09:43:22;;;;;;;9.07;5.47;;;;;;;20.89;61.67;101306.56;6157457;23;20017;-75
2023/07/22 09:45:48;;;;;;;6.22;5.07;;;;;;;20.96;60.37;101308.75;6159948;23;20021;-75
2023/07/22 09:48:16;;;;;;;9.77;5.63;;;;;;;20.81;60.30;101315.69;6159681;23;20018;-75
2023/07/22 09:50:43;;;;;;;7.53;5.15;;;;;;;20.81;61.14;101321.84;6159922;23;20487;-75
2023/07/22 09:53:15;;;;;;;5.90;5.20;;;;;;;20.80;59.44;101314.97;6159224;23;20412;-75
2023/07/22 09:55:43;;;;;;;6.75;4.90;;;;;;;20.69;60.78;101314.28;6158071;23;20081;-75
2023/07/22 09:58:10;;;;;;;10.73;5.57;;;;;;;20.70;60.18;101310.34;6160287;23;20085;-74
2023/07/22 10:00:38;;;;;;;9.48;5.70;;;;;;;20.71;60.97;101320.66;6159637;23;20057;-74
2023/07/22 10:03:11;;;;;;;11.23;6.22;;;;;;;20.74;60.50;101314.25;6160145;23;20048;-75
2023/07/22 10:05:42;;;;;;;9.27;6.15;;;;;;;20.72;60.89;101316.00;6157360;23;20476;-74
2023/07/22 10:08:11;;;;;;;7.75;5.97;;;;;;;20.73;60.92;101312.06;6158049;23;20014;-74
2023/07/22 10:10:38;;;;;;;8.07;5.55;;;;;;;20.63;60.54;101309.59;6158088;23;20056;-75
2023/07/22 10:13:06;;;;;;;7.47;4.80;;;;;;;20.51;60.09;101308.16;6160123;23;20073;-75
2023/07/22 10:15:34;;;;;;;7.20;4.80;;;;;;;20.49;59.50;101312.59;6160075;23;20022;-75
2023/07/22 10:18:03;;;;;;;6.00;4.80;;;;;;;20.60;59.44;101307.16;6158754;23;20491;-74
2023/07/22 10:20:30;;;;;;;6.85;4.65;;;;;;;20.73;59.64;101291.16;6159516;23;20022;-75
2023/07/22 10:22:58;;;;;;;5.70;4.57;;;;;;;20.86;58.31;101299.44;6160182;23;20093;-77
2023/07/22 10:25:25;;;;;;;6.63;4.40;;;;;;;20.91;58.58;101290.56;6157997;23;20053;-76
2023/07/22 10:27:53;;;;;;;6.13;4.60;;;;;;;21.02;57.38;101299.88;6158046;23;20042;-76
2023/07/22 10:30:19;;;;;;;5.82;4.47;;;;;;;21.18;58.60;101301.78;6158355;23;20471;-76
2023/07/22 10:32:51;;;;;;;8.65;4.82;;;;;;;21.18;57.66;101299.09;6160074;23;20018;-78
2023/07/22 10:35:34;;;;;;;9.18;5.05;;;;;;;21.05;58.60;101304.31;6157993;23;20458;-77
2023/07/22 10:38:08;;;;;;;5.05;4.25;;;;;;;21.00;58.04;101294.22;6158558;23;20022;-76
2023/07/22 10:40:47;;;;;;;5.22;4.00;;;;;;;20.92;57.64;101294.00;6133609;23;20026;-75
2023/07/22 10:43:18;;;;;;;6.45;3.95;;;;;;;20.85;58.10;101299.94;6159908;23;20018;-77
2023/07/22 10:45:53;;;;;;;7.78;4.07;;;;;;;20.83;58.09;101305.09;6157733;23;20014;-75
2023/07/22 10:48:22;;;;;;;4.57;4.18;;;;;;;20.73;57.51;101306.63;6159097;23;20018;-75
2023/07/22 10:50:54;;;;;;;7.13;4.30;;;;;;;20.71;57.89;101299.03;6158485;23;20101;-75
2023/07/22 10:53:23;;;;;;;5.68;4.18;;;;;;;20.73;58.53;101293.13;6159588;23;20065;-75
2023/07/22 10:56:09;;;;;;;4.40;4.00;;;;;;;20.80;58.26;101300.69;6159005;23;20010;-75
2023/07/22 10:58:44;;;;;;;5.95;3.80;;;;;;;20.78;58.57;101308.59;6158160;23;20014;-76
2023/07/22 11:01:26;;;;;;;5.18;3.80;;;;;;;20.67;59.06;101305.91;6158144;23;20381;-78
2023/07/22 11:04:12;;;;;;;4.85;4.35;;;;;;;20.51;58.79;101315.53;6158285;23;20018;-74
2023/07/22 11:06:48;;;;;;;4.00;3.60;;;;;;;20.15;58.81;101314.56;6158965;23;20022;-77
2023/07/22 11:09:35;;;;;;;4.35;3.50;;;;;;;19.94;58.86;101314.81;6159890;23;20547;-76
2023/07/22 11:12:03;;;;;;;4.28;3.85;;;;;;;19.95;58.76;101308.19;6159391;23;20022;-76
2023/07/22 11:14:37;;;;;;;4.40;3.80;;;;;;;20.05;58.76;101310.63;6159515;23;20460;-76
2023/07/22 11:17:05;;;;;;;4.30;3.58;;;;;;;20.05;58.83;101299.81;6157734;23;20110;-76
2023/07/22 11:19:35;;;;;;;4.57;3.78;;;;;;;20.22;59.68;101304.00;6158826;23;20021;-76
2023/07/22 11:22:02;;;;;;;4.90;3.88;;;;;;;20.39;58.69;101301.31;6159942;23;20063;-76